createdAt,value
2022-08-30T00:02:20.875Z,73.82
2022-08-30T00:04:49.813Z,74.02
2022-08-30T00:07:19.035Z,74.06
2022-08-30T00:09:48.093Z,73.99
2022-08-30T00:12:14.688Z,74.16
2022-08-30T00:14:41.241Z,74.33
2022-08-30T00:17:07.856Z,74.18
2022-08-30T00:19:34.389Z,74.45
2022-08-30T00:22:01.000Z,74.62
2022-08-30T00:24:27.838Z,74.86
2022-08-30T00:26:56.609Z,75.17
2022-08-30T00:29:23.204Z,75.45
2022-08-30T00:31:49.918Z,75.41
2022-08-30T00:34:18.737Z,75.56
2022-08-30T00:36:47.835Z,75.67
2022-08-30T00:39:14.410Z,75.90
2022-08-30T00:41:40.956Z,75.90
2022-08-30T00:44:07.917Z,76.00
2022-08-30T00:46:34.493Z,76.26
2022-08-30T00:49:05.385Z,76.49
2022-08-30T00:51:34.782Z,76.68
2022-08-30T00:54:01.866Z,76.64
2022-08-30T00:56:29.794Z,76.85
2022-08-30T00:59:01.840Z,76.63
2022-08-30T01:01:30.321Z,76.81
2022-08-30T01:04:00.185Z,76.91
2022-08-30T01:06:32.833Z,77.02
2022-08-30T01:09:04.350Z,76.91
2022-08-30T01:11:34.693Z,76.86
2022-08-30T01:14:03.152Z,76.66
2022-08-30T01:16:32.356Z,77.03
2022-08-30T01:19:00.299Z,76.75
2022-08-30T01:21:35.343Z,77.30
2022-08-30T01:24:02.847Z,77.14
2022-08-30T01:26:30.981Z,77.56
2022-08-30T01:29:04.887Z,77.55
2022-08-30T01:31:32.731Z,77.32
2022-08-30T01:34:01.227Z,77.34
2022-08-30T01:36:27.877Z,77.72
2022-08-30T01:38:57.564Z,77.79
2022-08-30T01:41:24.009Z,77.88
2022-08-30T01:43:52.515Z,77.90
2022-08-30T01:46:20.942Z,77.88
2022-08-30T01:48:51.957Z,77.85
2022-08-30T01:51:23.920Z,77.62
2022-08-30T01:53:50.776Z,77.74
2022-08-30T01:56:17.865Z,77.48
2022-08-30T01:58:45.104Z,77.76
2022-08-30T02:01:16.625Z,77.83
2022-08-30T02:03:46.974Z,78.00
2022-08-30T02:06:16.973Z,78.33
2022-08-30T02:08:44.146Z,78.46
2022-08-30T02:11:11.856Z,78.63
2022-08-30T02:13:40.229Z,78.69
2022-08-30T02:16:13.722Z,79.08
2022-08-30T02:18:40.407Z,79.03
2022-08-30T02:21:08.330Z,79.39
2022-08-30T02:23:35.911Z,79.43
2022-08-30T02:26:03.472Z,79.69
2022-08-30T02:28:30.401Z,80.01
2022-08-30T02:30:59.239Z,79.78
2022-08-30T02:33:28.191Z,80.17
2022-08-30T02:35:56.140Z,80.35
2022-08-30T02:38:23.778Z,80.13
2022-08-30T02:40:51.021Z,80.23
2022-08-30T02:43:17.899Z,80.39
2022-08-30T02:45:44.789Z,80.12
2022-08-30T02:48:11.391Z,79.92
2022-08-30T02:50:43.208Z,79.79
2022-08-30T02:53:16.235Z,79.94
2022-08-30T02:55:45.877Z,79.88
2022-08-30T02:58:12.608Z,79.95
2022-08-30T03:00:39.889Z,80.27
2022-08-30T03:03:07.461Z,80.40
2022-08-30T03:05:35.097Z,80.72
2022-08-30T03:08:04.681Z,81.09
2022-08-30T03:10:31.839Z,80.80
2022-08-30T03:12:58.557Z,80.82
2022-08-30T03:15:25.791Z,80.69
2022-08-30T03:17:54.055Z,80.60
2022-08-30T03:20:22.145Z,80.81
2022-08-30T03:22:48.847Z,80.97
2022-08-30T03:25:16.325Z,81.16
2022-08-30T03:27:45.377Z,81.15
2022-08-30T03:30:14.538Z,81.46
2022-08-30T03:32:42.017Z,81.50
2022-08-30T03:35:10.278Z,81.52
2022-08-30T03:37:37.221Z,81.62
2022-08-30T03:40:07.987Z,81.59
2022-08-30T03:42:35.359Z,81.81
2022-08-30T03:45:02.449Z,81.93
2022-08-30T03:47:30.288Z,82.04
2022-08-30T03:49:57.682Z,82.25
2022-08-30T03:52:26.687Z,82.36
2022-08-30T03:54:53.260Z,82.23
2022-08-30T03:57:24.537Z,82.36
2022-08-30T03:59:51.776Z,82.38
2022-08-30T04:02:21.348Z,82.00
2022-08-30T04:04:48.125Z,82.06
2022-08-30T04:07:14.770Z,82.33
2022-08-30T04:09:41.843Z,82.51
2022-08-30T04:12:10.630Z,82.41
2022-08-30T04:14:37.463Z,82.64
2022-08-30T04:17:04.556Z,82.93
2022-08-30T04:19:31.408Z,82.69
2022-08-30T04:21:58.073Z,82.86
2022-08-30T04:24:25.375Z,82.62
2022-08-30T04:26:54.445Z,82.64
2022-08-30T04:29:20.948Z,82.64
2022-08-30T04:31:47.781Z,82.57
2022-08-30T04:34:17.253Z,82.96
2022-08-30T04:36:48.048Z,82.86
2022-08-30T04:39:16.318Z,83.05
2022-08-30T04:41:42.894Z,82.85
2022-08-30T04:44:09.468Z,82.74
2022-08-30T04:46:44.446Z,82.74
2022-08-30T04:49:13.605Z,82.78
2022-08-30T04:51:40.337Z,83.18
2022-08-30T04:54:06.946Z,83.47
2022-08-30T04:56:33.706Z,83.40
2022-08-30T04:59:00.408Z,83.30
2022-08-30T05:01:29.776Z,83.12
2022-08-30T05:03:57.593Z,83.90
2022-08-30T05:06:27.496Z,83.37
2022-08-30T05:08:54.946Z,83.25
2022-08-30T05:11:21.796Z,83.50
2022-08-30T05:13:48.753Z,83.13
2022-08-30T05:16:19.501Z,83.11
2022-08-30T05:18:48.970Z,82.81
2022-08-30T05:21:18.896Z,82.41
2022-08-30T05:23:47.627Z,82.21
2022-08-30T05:26:25.162Z,81.89
2022-08-30T05:28:52.473Z,82.12
2022-08-30T05:31:33.130Z,82.20
2022-08-30T05:34:00.251Z,82.21
2022-08-30T05:36:29.590Z,81.87
2022-08-30T05:38:56.911Z,81.54
2022-08-30T05:41:26.649Z,81.42
2022-08-30T05:43:58.748Z,81.36
2022-08-30T05:46:29.406Z,80.44
2022-08-30T05:48:57.090Z,78.96
2022-08-30T05:51:29.138Z,78.66
2022-08-30T05:53:57.917Z,78.97
2022-08-30T05:56:31.834Z,79.35
2022-08-30T05:59:01.239Z,79.17
2022-08-30T06:01:33.146Z,78.03
2022-08-30T06:04:04.175Z,78.16
2022-08-30T06:06:33.691Z,78.33
2022-08-30T06:09:00.441Z,78.84
2022-08-30T06:11:27.897Z,79.00
2022-08-30T06:13:55.722Z,79.09
2022-08-30T06:16:25.380Z,79.25
2022-08-30T06:18:52.877Z,79.13
2022-08-30T06:21:22.333Z,78.53
2022-08-30T06:23:49.567Z,76.66
2022-08-30T06:26:16.889Z,77.13
2022-08-30T06:28:43.620Z,78.10
2022-08-30T06:31:12.489Z,76.54
2022-08-30T06:33:39.914Z,76.42
2022-08-30T06:36:09.809Z,75.33
2022-08-30T06:38:37.072Z,70.11
2022-08-30T06:41:13.395Z,66.40
2022-08-30T06:43:40.506Z,63.10
2022-08-30T06:46:11.939Z,61.34
2022-08-30T06:48:38.808Z,58.65
2022-08-30T06:51:09.137Z,58.38
2022-08-30T06:53:38.060Z,59.36
2022-08-30T06:56:08.516Z,58.65
2022-08-30T06:58:37.510Z,55.92
2022-08-30T07:01:08.467Z,55.65
2022-08-30T07:03:35.628Z,54.19
2022-08-30T07:06:02.372Z,53.41
2022-08-30T07:08:29.295Z,52.53
2022-08-30T07:10:55.992Z,53.47
2022-08-30T07:13:24.083Z,53.52
2022-08-30T07:15:51.810Z,50.89
2022-08-30T07:18:37.673Z,49.81
2022-08-30T07:21:33.602Z,50.13
2022-08-30T07:24:06.114Z,49.67
2022-08-30T07:26:41.303Z,49.58
2022-08-30T07:29:09.326Z,48.77
2022-08-30T07:31:37.546Z,47.86
2022-08-30T07:34:05.700Z,46.96
2022-08-30T07:36:32.982Z,46.66
2022-08-30T07:39:02.422Z,47.06
2022-08-30T07:41:38.536Z,46.28
2022-08-30T07:44:07.398Z,45.78
2022-08-30T07:46:34.224Z,45.65
2022-08-30T07:49:04.130Z,45.54
2022-08-30T07:51:31.756Z,46.30
2022-08-30T07:53:58.661Z,46.75
2022-08-30T07:56:25.661Z,46.46
2022-08-30T07:58:53.289Z,45.46
2022-08-30T08:01:21.042Z,44.41
2022-08-30T08:03:50.400Z,44.46
2022-08-30T08:06:19.548Z,45.02
2022-08-30T08:08:46.460Z,44.50
2022-08-30T08:11:17.018Z,46.28
2022-08-30T08:13:53.632Z,47.67
2022-08-30T08:16:23.254Z,47.51
2022-08-30T08:18:50.353Z,47.66
2022-08-30T08:21:16.906Z,48.81
2022-08-30T08:23:46.044Z,48.43
2022-08-30T08:26:14.769Z,48.02
2022-08-30T08:28:41.444Z,46.43
2022-08-30T08:31:19.541Z,46.20
2022-08-30T08:33:46.195Z,45.98
2022-08-30T08:36:13.018Z,44.22
2022-08-30T08:38:39.678Z,44.66
2022-08-30T08:41:13.221Z,44.40
2022-08-30T08:43:40.480Z,44.60
2022-08-30T08:46:36.448Z,47.03
2022-08-30T08:49:08.571Z,47.13
2022-08-30T08:51:57.662Z,46.91
2022-08-30T08:54:49.349Z,46.88
2022-08-30T08:57:17.038Z,47.04
2022-08-30T08:59:45.602Z,46.26
2022-08-30T09:02:28.515Z,45.83
2022-08-30T09:05:01.945Z,45.84
2022-08-30T09:07:34.740Z,45.65
2022-08-30T09:10:01.739Z,45.68
2022-08-30T09:12:28.950Z,45.45
2022-08-30T09:15:05.906Z,45.14
2022-08-30T09:17:50.009Z,46.61
2022-08-30T09:20:43.271Z,46.39
2022-08-30T09:23:16.367Z,46.16
2022-08-30T09:25:59.285Z,46.52
2022-08-30T09:28:28.524Z,46.19
2022-08-30T09:31:12.092Z,46.25
2022-08-30T09:33:39.263Z,46.64
2022-08-30T09:36:25.602Z,47.15
2022-08-30T09:39:13.692Z,47.30
2022-08-30T09:41:43.673Z,47.38
2022-08-30T09:44:16.574Z,47.33
2022-08-30T09:46:47.349Z,47.25
2022-08-30T09:49:31.993Z,47.44
2022-08-30T09:52:26.345Z,47.60
2022-08-30T09:55:14.428Z,47.78
2022-08-30T09:57:48.997Z,48.12
2022-08-30T10:00:22.705Z,48.10
2022-08-30T10:03:03.512Z,48.20
2022-08-30T10:05:30.794Z,48.70
2022-08-30T10:08:06.503Z,48.28
2022-08-30T10:10:56.189Z,48.11
2022-08-30T10:13:29.617Z,47.50
2022-08-30T10:16:09.394Z,47.44
2022-08-30T10:18:48.085Z,47.34
2022-08-30T10:21:26.948Z,47.44
2022-08-30T10:23:56.459Z,47.46
2022-08-30T10:26:32.801Z,47.10
2022-08-30T10:29:06.353Z,47.28
2022-08-30T10:31:48.797Z,47.40
2022-08-30T10:34:25.198Z,47.07
2022-08-30T10:36:59.871Z,47.05
2022-08-30T10:39:32.768Z,46.66
2022-08-30T10:42:17.695Z,46.36
2022-08-30T10:44:49.781Z,45.61
2022-08-30T10:47:27.812Z,45.76
2022-08-30T10:50:04.170Z,45.14
2022-08-30T10:52:41.009Z,45.29
2022-08-30T10:55:18.933Z,44.99
2022-08-30T10:57:48.086Z,45.17
2022-08-30T11:00:28.528Z,44.97
2022-08-30T11:03:36.334Z,44.97
2022-08-30T11:06:35.417Z,44.95
2022-08-30T11:09:20.209Z,44.71
2022-08-30T11:12:11.142Z,44.32
2022-08-30T11:14:43.996Z,43.98
2022-08-30T11:17:40.232Z,43.71
2022-08-30T11:20:29.656Z,44.01
2022-08-30T11:23:26.832Z,43.38
2022-08-30T11:25:59.381Z,42.97
2022-08-30T11:28:38.500Z,42.81
2022-08-30T11:31:32.974Z,42.29
2022-08-30T11:34:00.892Z,42.97
2022-08-30T11:36:37.625Z,42.10
2022-08-30T11:39:31.930Z,41.85
2022-08-30T11:42:31.050Z,41.85
2022-08-30T11:45:25.130Z,41.55
2022-08-30T11:48:07.380Z,41.08
2022-08-30T11:50:52.668Z,41.16
2022-08-30T11:53:30.583Z,41.39
2022-08-30T11:56:18.625Z,40.37
2022-08-30T11:58:52.024Z,40.52
2022-08-30T12:01:51.720Z,40.98
2022-08-30T12:04:17.309Z,40.51
2022-08-30T12:06:52.295Z,40.64
2022-08-30T12:09:24.929Z,40.51
2022-08-30T12:11:53.686Z,39.97
2022-08-30T12:14:51.617Z,39.92
2022-08-30T12:17:42.313Z,39.83
2022-08-30T12:20:22.564Z,39.87
2022-08-30T12:22:50.883Z,39.10
2022-08-30T12:25:39.118Z,39.58
2022-08-30T12:28:28.091Z,39.92
2022-08-30T12:30:55.428Z,39.74
2022-08-30T12:33:40.184Z,39.34
2022-08-30T12:36:13.134Z,39.58
2022-08-30T12:38:40.650Z,39.33
2022-08-30T12:41:07.258Z,39.54
2022-08-30T12:43:47.552Z,38.89
2022-08-30T12:46:20.133Z,38.81
2022-08-30T12:48:48.222Z,38.94
2022-08-30T12:51:37.223Z,39.28
2022-08-30T12:54:14.746Z,38.77
2022-08-30T12:57:03.705Z,38.96
2022-08-30T13:00:03.630Z,38.49
2022-08-30T13:02:52.222Z,38.41
2022-08-30T13:05:47.902Z,38.58
2022-08-30T13:08:14.810Z,38.46
2022-08-30T13:10:54.714Z,38.53
2022-08-30T13:13:31.707Z,38.69
2022-08-30T13:16:11.900Z,38.47
2022-08-30T13:18:40.082Z,38.15
2022-08-30T13:21:26.811Z,38.59
2022-08-30T13:24:04.832Z,38.29
2022-08-30T13:26:35.643Z,38.51
2022-08-30T13:29:10.428Z,38.12
2022-08-30T13:31:37.404Z,38.53
2022-08-30T13:34:05.033Z,37.71
2022-08-30T13:36:35.397Z,37.42
2022-08-30T13:39:05.375Z,37.66
2022-08-30T13:41:34.483Z,37.88
2022-08-30T13:44:12.971Z,37.89
2022-08-30T13:46:43.019Z,37.60
2022-08-30T13:52:19.864Z,37.51
2022-08-30T13:54:51.129Z,37.44
2022-08-30T14:00:12.678Z,36.69
2022-08-30T14:02:45.464Z,37.34
2022-08-30T14:05:46.369Z,36.97
2022-08-30T14:08:01.724Z,37.07
2022-08-30T14:10:31.053Z,37.47
2022-08-30T14:13:04.824Z,37.03
2022-08-30T14:15:38.850Z,37.47
2022-08-30T14:18:07.009Z,37.11
2022-08-30T14:20:38.728Z,37.21
2022-08-30T14:23:10.307Z,37.16
2022-08-30T14:25:40.855Z,36.97
2022-08-30T14:28:08.135Z,36.95
2022-08-30T14:30:36.494Z,37.31
2022-08-30T14:33:05.294Z,36.98
2022-08-30T14:35:32.110Z,36.70
2022-08-30T14:37:59.327Z,36.56
2022-08-30T14:40:25.948Z,36.68
2022-08-30T14:42:52.591Z,36.69
2022-08-30T14:45:19.528Z,36.60
2022-08-30T14:47:47.131Z,36.44
2022-08-30T14:50:15.239Z,35.70
2022-08-30T14:52:42.144Z,36.35
2022-08-30T14:55:17.014Z,36.30
2022-08-30T14:57:46.497Z,35.80
2022-08-30T15:00:14.404Z,35.69
2022-08-30T15:02:41.019Z,35.71
2022-08-30T15:05:08.416Z,35.14
2022-08-30T15:07:37.536Z,35.34
2022-08-30T15:10:05.896Z,35.99
2022-08-30T15:12:32.779Z,35.82
2022-08-30T15:14:59.778Z,35.89
2022-08-30T15:17:26.544Z,35.25
2022-08-30T15:19:54.492Z,35.27
2022-08-30T15:22:21.079Z,35.15
2022-08-30T15:24:48.936Z,35.78
2022-08-30T15:27:19.756Z,34.66
2022-08-30T15:29:46.358Z,35.90
2022-08-30T15:32:13.650Z,35.26
2022-08-30T15:34:40.168Z,35.32
2022-08-30T15:37:07.675Z,34.44
2022-08-30T15:39:34.782Z,35.64
2022-08-30T15:42:02.021Z,35.42
2022-08-30T15:44:31.457Z,35.46
2022-08-30T15:47:00.850Z,35.42
2022-08-30T15:49:30.060Z,35.13
2022-08-30T15:52:01.744Z,35.79
2022-08-30T15:54:28.316Z,35.31
2022-08-30T15:56:59.386Z,35.42
2022-08-30T15:59:28.034Z,35.45
2022-08-30T16:01:54.898Z,35.40
2022-08-30T16:04:26.253Z,35.74
2022-08-30T16:06:53.457Z,35.90
2022-08-30T16:09:20.743Z,36.00
2022-08-30T16:11:48.128Z,35.91
2022-08-30T16:14:14.772Z,36.09
2022-08-30T16:16:42.131Z,35.92
2022-08-30T16:19:09.415Z,35.90
2022-08-30T16:21:37.332Z,35.91
2022-08-30T16:24:05.839Z,36.21
2022-08-30T16:26:34.496Z,36.17
2022-08-30T16:29:02.144Z,36.14
2022-08-30T16:31:31.650Z,36.54
2022-08-30T16:34:02.844Z,36.30
2022-08-30T16:36:32.440Z,36.58
2022-08-30T16:39:02.614Z,36.56
2022-08-30T16:41:31.487Z,36.69
2022-08-30T16:44:01.723Z,36.47
2022-08-30T16:46:30.992Z,36.52
2022-08-30T16:49:01.362Z,36.49
2022-08-30T16:51:31.537Z,36.66
2022-08-30T16:54:02.076Z,36.91
2022-08-30T16:56:32.911Z,36.66
2022-08-30T16:59:02.474Z,36.58
2022-08-30T17:01:34.947Z,36.70
2022-08-30T17:04:02.231Z,36.77
2022-08-30T17:06:28.909Z,36.87
2022-08-30T17:08:56.309Z,36.79
2022-08-30T17:11:25.953Z,37.04
2022-08-30T17:13:53.036Z,36.91
2022-08-30T17:16:22.476Z,36.89
2022-08-30T17:18:59.750Z,37.03
2022-08-30T17:21:30.424Z,36.90
2022-08-30T17:24:01.435Z,37.14
2022-08-30T17:26:31.119Z,37.15
2022-08-30T17:28:58.157Z,37.30
2022-08-30T17:34:17.387Z,37.32
2022-08-30T17:36:44.011Z,37.38
2022-08-30T17:39:11.826Z,37.58
2022-08-30T17:41:45.188Z,37.69
2022-08-30T17:44:19.047Z,37.75
2022-08-30T17:46:45.758Z,37.79
2022-08-30T17:49:13.053Z,37.99
2022-08-30T17:51:42.531Z,37.93
2022-08-30T17:54:13.115Z,38.06
2022-08-30T17:56:51.124Z,38.43
2022-08-30T17:59:17.898Z,38.49
2022-08-30T18:01:44.993Z,38.81
2022-08-30T18:04:14.013Z,39.00
2022-08-30T18:06:46.384Z,39.03
2022-08-30T18:09:13.255Z,39.14
2022-08-30T18:11:41.286Z,39.00
2022-08-30T18:14:10.818Z,39.51
2022-08-30T18:16:38.577Z,39.33
2022-08-30T18:19:14.295Z,39.57
2022-08-30T18:21:41.799Z,39.20
2022-08-30T18:24:08.934Z,39.41
2022-08-30T18:26:42.911Z,39.87
2022-08-30T18:29:10.581Z,39.84
2022-08-30T18:31:37.098Z,39.79
2022-08-30T18:34:03.866Z,40.14
2022-08-30T18:36:31.020Z,40.16
2022-08-30T18:39:00.930Z,40.52
2022-08-30T18:41:30.063Z,40.85
2022-08-30T18:44:17.128Z,40.86
2022-08-30T18:46:56.350Z,41.03
2022-08-30T18:49:24.326Z,41.10
2022-08-30T18:51:50.881Z,41.25
2022-08-30T18:54:20.938Z,41.30
2022-08-30T18:56:47.551Z,41.79
2022-08-30T18:59:14.163Z,41.95
2022-08-30T19:01:42.512Z,41.67
2022-08-30T19:04:11.403Z,41.92
2022-08-30T19:06:49.963Z,42.09
2022-08-30T19:09:18.997Z,42.56
2022-08-30T19:11:45.525Z,42.67
2022-08-30T19:14:12.244Z,42.63
2022-08-30T19:16:40.220Z,43.00
2022-08-30T19:19:10.045Z,42.92
2022-08-30T19:21:40.101Z,43.06
2022-08-30T19:24:07.824Z,42.88
2022-08-30T19:26:35.831Z,43.32
2022-08-30T19:29:03.216Z,43.33
2022-08-30T19:31:29.838Z,43.58
2022-08-30T19:33:56.597Z,43.49
2022-08-30T19:36:26.273Z,43.75
2022-08-30T19:38:55.821Z,43.94
2022-08-30T19:41:22.948Z,44.33
2022-08-30T19:43:51.037Z,44.35
2022-08-30T19:46:17.875Z,44.64
2022-08-30T19:48:44.474Z,44.48
2022-08-30T19:51:13.764Z,44.78
2022-08-30T19:53:40.882Z,44.94
2022-08-30T19:56:08.070Z,45.02
2022-08-30T19:58:34.732Z,45.18
2022-08-30T20:01:11.623Z,45.70
2022-08-30T20:03:39.892Z,45.50
2022-08-30T20:06:07.497Z,45.54
2022-08-30T20:08:34.595Z,45.76
2022-08-30T20:11:01.136Z,46.14
2022-08-30T20:13:28.269Z,46.10
2022-08-30T20:15:58.955Z,46.21
2022-08-30T20:18:26.295Z,46.45
2022-08-30T20:20:53.543Z,46.81
2022-08-30T20:23:21.668Z,46.91
2022-08-30T20:24:23.739Z,37.44
2022-08-30T20:25:54.747Z,46.99
2022-08-30T20:28:22.092Z,47.37
2022-08-30T20:30:49.544Z,47.56
2022-08-30T20:33:19.975Z,47.74
2022-08-30T20:35:49.538Z,47.84
2022-08-30T20:38:21.697Z,48.02
2022-08-30T20:40:50.927Z,48.21
2022-08-30T20:43:18.979Z,48.40
2022-08-30T20:45:46.472Z,48.91
2022-08-30T20:48:13.851Z,48.87
2022-08-30T20:50:43.805Z,49.13
2022-08-30T20:53:11.216Z,49.23
2022-08-30T20:55:45.336Z,49.77
2022-08-30T20:58:12.936Z,49.68
2022-08-30T21:00:39.943Z,50.02
2022-08-30T21:03:26.084Z,50.37
2022-08-30T21:05:54.950Z,50.53
2022-08-30T21:08:21.558Z,50.90
2022-08-30T21:10:50.555Z,51.21
2022-08-30T21:13:17.283Z,51.52
2022-08-30T21:15:46.074Z,51.70
2022-08-30T21:18:14.178Z,51.65
2022-08-30T21:20:41.330Z,52.25
2022-08-30T21:23:08.088Z,52.39
2022-08-30T21:25:38.493Z,52.61
2022-08-30T21:28:07.718Z,52.88
2022-08-30T21:30:35.684Z,53.13
2022-08-30T21:33:06.391Z,53.15
2022-08-30T21:35:52.195Z,53.39
2022-08-30T21:38:19.965Z,54.46
2022-08-30T21:40:48.902Z,54.18
2022-08-30T21:43:16.101Z,54.13
2022-08-30T21:45:43.862Z,54.67
2022-08-30T21:48:14.974Z,55.21
2022-08-30T21:50:44.811Z,55.32
2022-08-30T21:53:11.468Z,55.40
2022-08-30T21:55:42.119Z,55.60
2022-08-30T21:58:10.474Z,55.66
2022-08-30T22:00:37.010Z,55.92
2022-08-30T22:03:03.901Z,56.04
2022-08-30T22:05:33.041Z,56.45
2022-08-30T22:07:59.923Z,56.63
2022-08-30T22:10:29.999Z,56.88
2022-08-30T22:12:59.011Z,56.98
2022-08-30T22:15:26.853Z,57.02
2022-08-30T22:17:55.857Z,57.43
2022-08-30T22:20:24.867Z,57.35
2022-08-30T22:22:56.562Z,57.44
2022-08-30T22:25:25.407Z,57.76
2022-08-30T22:27:52.074Z,57.63
2022-08-30T22:30:18.715Z,58.18
2022-08-30T22:32:45.280Z,58.24
2022-08-30T22:35:14.306Z,58.43
2022-08-30T22:37:41.749Z,58.73
2022-08-30T22:40:14.255Z,58.93
2022-08-30T22:42:41.035Z,58.93
2022-08-30T22:45:17.693Z,59.20
2022-08-30T22:47:46.531Z,59.39
2022-08-30T22:50:13.301Z,59.56
2022-08-30T22:52:41.067Z,59.66
2022-08-30T22:55:08.249Z,59.42
2022-08-30T22:57:37.243Z,60.00
2022-08-30T23:00:11.928Z,59.90
2022-08-30T23:02:38.655Z,60.18
2022-08-30T23:05:05.702Z,60.14
2022-08-30T23:07:32.287Z,60.38
2022-08-30T23:09:59.303Z,60.63
2022-08-30T23:12:26.712Z,60.52
2022-08-30T23:14:55.960Z,60.92
2022-08-30T23:17:22.550Z,61.20
2022-08-30T23:19:49.168Z,61.24
2022-08-30T23:22:16.137Z,61.63
2022-08-30T23:25:01.464Z,61.80
2022-08-30T23:27:46.444Z,61.88
2022-08-30T23:30:31.923Z,61.92
2022-08-30T23:33:17.265Z,62.00
2022-08-30T23:36:05.205Z,62.16
2022-08-30T23:38:50.383Z,62.27
2022-08-30T23:41:37.868Z,62.37
2022-08-30T23:44:23.280Z,62.42
2022-08-30T23:47:09.008Z,62.84
2022-08-30T23:49:55.102Z,62.95
2022-08-30T23:52:40.334Z,62.97
2022-08-30T23:55:26.718Z,63.09
2022-08-30T23:58:11.601Z,63.18
